Time;durP1;ratioP1;P1;durP2;ratioP2;P2;SDS_P1;SDS_P2;PMS_P1;PMS_P2;Temp;Humidity;BMP_temperature;BMP_pressure;BME280_temperature;BME280_humidity;BME280_pressure;Samples;Min_cycle;Max_cycle;Signal;HPM_P1;HPM_P2
2023/08/12 00:01:24;;;;;;;28.33;18.40;;;;;;;21.49;100.00;101322.03;5004843;28;20885;-67
2023/08/12 00:03:50;;;;;;;35.67;23.45;;;;;;;21.48;100.00;101313.28;5007194;28;20530;-66
2023/08/12 00:06:15;;;;;;;28.75;19.73;;;;;;;21.43;100.00;101310.00;5011036;28;20217;-66
2023/08/12 00:08:41;;;;;;;29.90;18.75;;;;;;;21.44;100.00;101324.84;5016461;28;20467;-65
2023/08/12 00:11:06;;;;;;;23.67;17.10;;;;;;;21.41;100.00;101322.34;5007173;28;20049;-66
2023/08/12 00:13:31;;;;;;;24.65;16.65;;;;;;;21.42;100.00;101323.22;5014642;28;20038;-67
2023/08/12 00:15:57;;;;;;;29.10;20.48;;;;;;;21.41;100.00;101318.88;5009387;28;20066;-66
2023/08/12 00:18:22;;;;;;;33.40;21.83;;;;;;;21.39;100.00;101321.56;5013205;28;20052;-66
2023/08/12 00:20:48;;;;;;;31.42;21.35;;;;;;;21.36;100.00;101323.47;5017814;28;20191;-65
2023/08/12 00:23:13;;;;;;;28.38;18.88;;;;;;;21.37;100.00;101333.94;5010973;28;20713;-66
2023/08/12 00:25:39;;;;;;;27.70;19.50;;;;;;;21.33;100.00;101340.25;5018051;28;20033;-66
2023/08/12 00:28:04;;;;;;;23.83;17.50;;;;;;;21.30;100.00;101327.22;5016861;28;20037;-67
2023/08/12 00:30:30;;;;;;;33.67;22.40;;;;;;;21.27;100.00;101325.59;5013163;28;20702;-66
2023/08/12 00:32:55;;;;;;;33.30;20.67;;;;;;;21.27;100.00;101330.00;5005362;28;20068;-66
2023/08/12 00:35:20;;;;;;;34.40;21.55;;;;;;;21.24;100.00;101324.88;5020089;28;20659;-65
2023/08/12 00:37:46;;;;;;;29.48;19.50;;;;;;;21.24;100.00;101328.34;5014068;28;20041;-64
2023/08/12 00:40:12;;;;;;;34.97;24.92;;;;;;;21.28;100.00;101319.41;5014963;28;20164;-65
2023/08/12 00:42:38;;;;;;;44.17;27.50;;;;;;;21.25;100.00;101305.56;5012283;28;20612;-65
2023/08/12 00:45:09;;;;;;;43.50;27.15;;;;;;;21.18;100.00;101304.97;5019182;28;20163;-65
2023/08/12 00:47:34;;;;;;;44.70;26.55;;;;;;;21.14;100.00;101305.16;5016501;28;20775;-65
2023/08/12 00:49:59;;;;;;;49.45;28.88;;;;;;;21.11;100.00;101298.25;5014196;28;20048;-66
2023/08/12 00:52:26;;;;;;;49.92;30.90;;;;;;;21.13;100.00;101300.81;5007085;28;20153;-65
2023/08/12 00:54:52;;;;;;;54.83;34.15;;;;;;;21.12;100.00;101292.09;5010657;28;20072;-65
2023/08/12 00:57:17;;;;;;;42.78;30.25;;;;;;;21.11;100.00;101300.03;5021492;28;20246;-65
2023/08/12 00:59:44;;;;;;;40.35;27.02;;;;;;;21.12;100.00;101305.22;5012481;28;20487;-65
2023/08/12 01:02:11;;;;;;;41.20;26.35;;;;;;;21.15;100.00;101298.97;5013029;28;20112;-65
2023/08/12 01:04:37;;;;;;;45.78;30.80;;;;;;;21.15;100.00;101285.84;5013277;28;20129;-65
2023/08/12 01:07:03;;;;;;;36.92;23.60;;;;;;;21.15;100.00;101284.06;5017304;28;20038;-64
2023/08/12 01:09:29;;;;;;;54.47;34.42;;;;;;;21.14;100.00;101284.13;5013969;28;20038;-66
2023/08/12 01:12:20;;;;;;;50.38;32.72;;;;;;;21.11;100.00;101279.00;5019028;28;20762;-66
2023/08/12 01:14:50;;;;;;;56.33;34.90;;;;;;;21.15;100.00;101272.69;5001194;28;20037;-66
2023/08/12 01:17:16;;;;;;;60.00;35.58;;;;;;;21.15;100.00;101268.28;5020804;28;20063;-66
2023/08/12 01:19:43;;;;;;;57.78;35.10;;;;;;;21.11;100.00;101269.34;4999411;28;20041;-66
2023/08/12 01:22:10;;;;;;;58.92;33.85;;;;;;;21.07;100.00;101270.41;5017441;28;20038;-66
2023/08/12 01:24:38;;;;;;;59.70;35.92;;;;;;;21.08;100.00;101266.84;5011019;28;20111;-65
2023/08/12 01:27:04;;;;;;;49.40;31.50;;;;;;;21.01;100.00;101260.16;5016109;28;20502;-65
2023/08/12 01:29:31;;;;;;;49.83;29.58;;;;;;;20.99;100.00;101256.72;5009939;28;20053;-65
2023/08/12 01:32:12;;;;;;;51.85;31.33;;;;;;;21.00;100.00;101262.84;5013050;28;20227;-65
2023/08/12 01:34:43;;;;;;;46.58;27.77;;;;;;;21.00;100.00;101271.59;5013982;28;20117;-65
2023/08/12 01:37:14;;;;;;;49.97;29.77;;;;;;;21.00;100.00;101265.47;5020297;28;20091;-64
2023/08/12 01:39:41;;;;;;;49.60;30.52;;;;;;;21.00;100.00;101255.81;5008690;28;20060;-64
2023/08/12 01:42:06;;;;;;;48.55;29.98;;;;;;;20.97;100.00;101255.09;5018883;28;20054;-65
2023/08/12 01:44:32;;;;;;;56.08;31.52;;;;;;;20.94;100.00;101252.59;5019049;28;20398;-64
2023/08/12 01:46:59;;;;;;;41.95;26.65;;;;;;;20.90;100.00;101243.97;5017097;28;20051;-64
2023/08/12 01:49:25;;;;;;;46.50;27.67;;;;;;;20.92;100.00;101241.31;5015503;28;20568;-64
2023/08/12 01:51:50;;;;;;;48.65;31.63;;;;;;;20.93;100.00;101241.22;5015581;28;20041;-65
2023/08/12 01:54:15;;;;;;;55.33;31.30;;;;;;;20.90;100.00;101233.47;5018881;28;20771;-65
2023/08/12 01:56:41;;;;;;;60.17;33.55;;;;;;;20.91;100.00;101240.44;5019218;28;20029;-65
2023/08/12 01:59:06;;;;;;;60.85;36.53;;;;;;;20.94;100.00;101226.31;5018252;28;20044;-64
2023/08/12 02:01:31;;;;;;;58.55;34.47;;;;;;;20.92;100.00;101228.16;5014099;28;20045;-65
2023/08/12 02:03:57;;;;;;;46.40;28.67;;;;;;;20.88;100.00;101231.84;5020388;28;20033;-64
2023/08/12 02:06:22;;;;;;;46.28;27.40;;;;;;;20.86;100.00;101231.06;5021677;28;20041;-64
2023/08/12 02:08:47;;;;;;;44.25;26.92;;;;;;;20.82;100.00;101224.22;5024803;28;20040;-64
2023/08/12 02:11:13;;;;;;;41.10;26.48;;;;;;;20.81;100.00;101231.22;5034526;28;20068;-64
2023/08/12 02:13:38;;;;;;;41.83;27.17;;;;;;;20.81;100.00;101228.59;5029825;28;20132;-64
2023/08/12 02:16:03;;;;;;;39.38;26.25;;;;;;;20.79;100.00;101229.59;5014562;28;20038;-64
2023/08/12 02:18:29;;;;;;;37.63;24.25;;;;;;;20.78;100.00;101227.91;5022653;28;20037;-64
2023/08/12 02:20:54;;;;;;;41.08;25.55;;;;;;;20.77;100.00;101223.56;5024443;28;20048;-64
2023/08/12 02:23:19;;;;;;;36.80;24.50;;;;;;;20.75;100.00;101225.41;5024701;28;20041;-65
2023/08/12 02:25:45;;;;;;;37.90;24.80;;;;;;;20.74;100.00;101227.19;5022866;28;20592;-64
2023/08/12 02:28:10;;;;;;;36.67;23.67;;;;;;;20.72;100.00;101221.97;5018879;28;20526;-64
2023/08/12 02:30:35;;;;;;;32.47;22.23;;;;;;;20.68;100.00;101222.16;5014631;28;20092;-65
2023/08/12 02:33:01;;;;;;;31.25;21.25;;;;;;;20.67;100.00;101230.94;5018552;28;20045;-64
2023/08/12 02:35:26;;;;;;;37.40;23.25;;;;;;;20.67;100.00;101228.31;5022057;28;20372;-64
2023/08/12 02:37:52;;;;;;;30.30;20.10;;;;;;;20.69;100.00;101232.63;5004109;28;20095;-64
2023/08/12 02:40:17;;;;;;;28.58;20.13;;;;;;;20.71;100.00;101227.31;5018305;28;20180;-64
2023/08/12 02:42:42;;;;;;;32.88;20.90;;;;;;;20.71;100.00;101232.56;4995412;28;20045;-64
2023/08/12 02:45:08;;;;;;;33.05;22.45;;;;;;;20.72;100.00;101218.50;5015440;28;20037;-65
2023/08/12 02:47:33;;;;;;;31.77;21.13;;;;;;;20.70;100.00;101213.31;5019908;28;20040;-64
2023/08/12 02:49:59;;;;;;;34.70;22.67;;;;;;;20.68;100.00;101211.66;5019670;28;20695;-64
2023/08/12 02:52:24;;;;;;;32.03;22.70;;;;;;;20.67;100.00;101210.78;5001508;28;20041;-65
2023/08/12 02:54:49;;;;;;;31.50;23.15;;;;;;;20.69;100.00;101216.84;5020501;28;20037;-65
2023/08/12 02:57:15;;;;;;;35.40;22.48;;;;;;;20.71;100.00;101211.56;5019404;28;20077;-65
2023/08/12 02:59:40;;;;;;;31.75;21.05;;;;;;;20.71;100.00;101214.19;5010961;28;20083;-65
2023/08/12 03:02:06;;;;;;;36.03;24.00;;;;;;;20.70;100.00;101213.31;5012185;28;20037;-63
2023/08/12 03:04:31;;;;;;;30.80;20.25;;;;;;;20.69;100.00;101208.97;5012112;28;20034;-65
2023/08/12 03:06:56;;;;;;;29.85;21.23;;;;;;;20.65;100.00;101204.75;5015124;28;20030;-64
2023/08/12 03:09:22;;;;;;;34.92;22.58;;;;;;;20.67;100.00;101204.69;5011646;28;20052;-64
2023/08/12 03:11:47;;;;;;;39.88;22.45;;;;;;;20.66;100.00;101195.94;5019087;28;20505;-65
2023/08/12 03:14:13;;;;;;;26.35;19.00;;;;;;;20.63;100.00;101193.44;5018041;28;20040;-64
2023/08/12 03:16:38;;;;;;;37.17;21.77;;;;;;;20.64;100.00;101196.94;5012177;28;20053;-64
2023/08/12 03:19:03;;;;;;;28.38;18.27;;;;;;;20.61;100.00;101197.91;4990412;28;20128;-65
2023/08/12 03:21:29;;;;;;;28.55;19.30;;;;;;;20.58;100.00;101198.03;5001458;28;20037;-64
2023/08/12 03:23:54;;;;;;;28.15;19.38;;;;;;;20.56;100.00;101191.16;5002912;28;20088;-64
2023/08/12 03:26:20;;;;;;;28.30;19.48;;;;;;;20.56;100.00;101188.53;5015702;28;20104;-65
2023/08/12 03:28:45;;;;;;;29.58;17.23;;;;;;;20.53;100.00;101181.63;4993429;28;20125;-64
2023/08/12 03:31:10;;;;;;;27.50;16.98;;;;;;;20.53;100.00;101180.78;5013246;28;20045;-64
2023/08/12 03:33:36;;;;;;;28.20;18.27;;;;;;;20.54;100.00;101175.44;5015684;28;20041;-64
2023/08/12 03:36:01;;;;;;;28.55;18.60;;;;;;;20.51;100.00;101164.25;5004896;28;20038;-64
2023/08/12 03:38:27;;;;;;;31.73;19.15;;;;;;;20.50;100.00;101170.41;5012879;28;20046;-64
2023/08/12 03:40:52;;;;;;;27.02;18.67;;;;;;;20.47;100.00;101166.13;5018035;28;20527;-64
2023/08/12 03:43:17;;;;;;;30.25;19.38;;;;;;;20.49;100.00;101169.53;5022756;28;20073;-64
2023/08/12 03:45:43;;;;;;;27.20;17.38;;;;;;;20.45;100.00;101162.72;5014261;28;20049;-64
2023/08/12 03:48:09;;;;;;;28.08;18.42;;;;;;;20.45;100.00;101164.50;5013941;28;20033;-64
2023/08/12 03:50:38;;;;;;;25.23;16.13;;;;;;;20.41;100.00;101163.78;5018417;28;20030;-64
2023/08/12 03:53:04;;;;;;;21.00;15.68;;;;;;;20.40;100.00;101158.56;5010249;28;20818;-64
2023/08/12 03:55:33;;;;;;;22.08;16.00;;;;;;;20.35;100.00;101150.91;5013577;28;20136;-64
2023/08/12 03:57:59;;;;;;;21.52;15.52;;;;;;;20.30;100.00;101138.91;4996625;28;20112;-64
2023/08/12 04:00:25;;;;;;;24.95;15.13;;;;;;;20.26;100.00;101137.31;5013819;28;20638;-64
2023/08/12 04:02:50;;;;;;;20.50;14.98;;;;;;;20.21;100.00;101134.03;5001147;28;20014;-64
2023/08/12 04:05:16;;;;;;;20.63;15.82;;;;;;;20.17;100.00;101128.06;5010120;28;20459;-63
2023/08/12 04:07:41;;;;;;;21.80;15.45;;;;;;;20.15;100.00;101129.91;5005923;28;20041;-63
2023/08/12 04:10:07;;;;;;;21.27;14.43;;;;;;;20.12;100.00;101117.75;5008209;28;20120;-64
2023/08/12 04:12:32;;;;;;;18.73;13.02;;;;;;;20.10;100.00;101118.72;5009140;28;20041;-64
2023/08/12 04:14:58;;;;;;;19.27;13.45;;;;;;;20.06;100.00;101119.78;5013531;28;20711;-65
2023/08/12 04:17:23;;;;;;;22.50;14.63;;;;;;;20.04;100.00;101113.72;5016584;28;20034;-64
2023/08/12 04:19:49;;;;;;;16.23;12.90;;;;;;;20.00;100.00;101110.41;5013299;28;20042;-64
2023/08/12 04:22:15;;;;;;;23.00;13.48;;;;;;;19.98;100.00;101113.97;5010752;28;20057;-64
2023/08/12 04:24:40;;;;;;;20.92;14.27;;;;;;;19.96;100.00;101115.81;5011083;28;20041;-64
2023/08/12 04:27:05;;;;;;;21.98;13.98;;;;;;;19.93;100.00;101113.31;5010186;28;20603;-64
2023/08/12 04:29:31;;;;;;;24.45;15.90;;;;;;;19.93;100.00;101110.69;5013893;28;20082;-63
2023/08/12 04:31:56;;;;;;;22.55;15.52;;;;;;;19.92;100.00;101112.47;5006813;28;20067;-64
2023/08/12 04:34:21;;;;;;;23.90;15.30;;;;;;;19.92;100.00;101115.09;5016551;28;20116;-64
2023/08/12 04:36:47;;;;;;;25.55;15.35;;;;;;;19.90;100.00;101119.56;5013011;28;20037;-63
2023/08/12 04:39:12;;;;;;;19.45;13.77;;;;;;;19.89;100.00;101114.38;5016099;28;20037;-64
2023/08/12 04:41:38;;;;;;;19.15;14.93;;;;;;;19.87;100.00;101114.44;5015365;28;20029;-63
2023/08/12 04:44:04;;;;;;;19.48;14.65;;;;;;;19.89;100.00;101117.84;5011194;28;21082;-63
2023/08/12 04:46:30;;;;;;;20.38;14.43;;;;;;;19.89;100.00;101115.22;5012573;28;20037;-64
2023/08/12 04:48:55;;;;;;;22.17;15.57;;;;;;;19.92;100.00;101108.97;5012632;28;20056;-63
2023/08/12 04:51:21;;;;;;;17.58;13.38;;;;;;;19.93;100.00;101103.69;4981486;28;20048;-63
2023/08/12 04:53:46;;;;;;;21.85;14.73;;;;;;;19.95;100.00;101099.22;5015796;28;20180;-63
2023/08/12 04:56:11;;;;;;;24.55;15.07;;;;;;;19.96;100.00;101103.56;5014878;28;20048;-63
2023/08/12 04:58:37;;;;;;;20.10;14.35;;;;;;;19.99;100.00;101099.94;5012849;28;20068;-64
2023/08/12 05:01:02;;;;;;;19.90;15.18;;;;;;;20.00;100.00;101092.03;4997738;28;20284;-64
2023/08/12 05:03:28;;;;;;;17.90;13.63;;;;;;;20.09;100.00;101091.66;5017160;28;20029;-63
2023/08/12 05:05:53;;;;;;;19.98;14.50;;;;;;;20.20;100.00;101093.81;5016506;28;20063;-63
2023/08/12 05:08:19;;;;;;;18.83;15.23;;;;;;;20.30;100.00;101089.00;5015625;28;20057;-64
2023/08/12 05:10:49;;;;;;;20.65;14.65;;;;;;;20.44;100.00;101081.38;5010743;28;20060;-64
2023/08/12 05:13:16;;;;;;;22.90;16.30;;;;;;;20.61;100.00;101084.09;5013358;28;20042;-64
2023/08/12 05:15:44;;;;;;;25.10;17.08;;;;;;;20.72;100.00;101088.94;5013050;28;20056;-63
2023/08/12 05:18:09;;;;;;;23.75;15.38;;;;;;;20.83;100.00;101100.66;5007769;28;20041;-63
2023/08/12 05:20:35;;;;;;;23.17;15.95;;;;;;;20.86;100.00;101095.28;5011302;28;20396;-63
2023/08/12 05:23:00;;;;;;;15.18;13.15;;;;;;;20.85;100.00;101104.06;5014083;28;20137;-65
2023/08/12 05:25:25;;;;;;;21.98;15.05;;;;;;;20.95;100.00;101112.38;5010563;28;20083;-63
2023/08/12 05:27:51;;;;;;;19.95;13.00;;;;;;;21.00;100.00;101111.25;5012495;28;20076;-63
2023/08/12 05:30:16;;;;;;;19.02;14.25;;;;;;;21.06;100.00;101115.38;5018470;28;20052;-63
2023/08/12 05:32:42;;;;;;;21.13;14.60;;;;;;;21.06;100.00;101112.75;5016113;28;20091;-63
2023/08/12 05:35:07;;;;;;;18.10;13.02;;;;;;;21.07;100.00;101117.94;5015020;28;20366;-63
2023/08/12 05:37:33;;;;;;;21.13;14.90;;;;;;;21.06;100.00;101121.50;5019486;28;20041;-63
2023/08/12 05:39:58;;;;;;;22.50;16.40;;;;;;;21.06;100.00;101129.38;5012201;28;20045;-63
2023/08/12 05:42:23;;;;;;;21.63;17.55;;;;;;;21.08;100.00;101127.50;4998081;28;20037;-63
2023/08/12 05:44:49;;;;;;;24.58;18.48;;;;;;;21.12;100.00;101133.50;4999438;28;20033;-64
2023/08/12 05:47:14;;;;;;;20.10;17.25;;;;;;;21.15;100.00;101128.94;5020222;28;20029;-63
2023/08/12 05:49:39;;;;;;;22.42;17.25;;;;;;;21.16;100.00;101135.94;5011437;28;20029;-63
2023/08/12 05:52:05;;;;;;;23.95;16.83;;;;;;;21.13;100.00;101130.81;5010780;28;20911;-64
2023/08/12 05:54:30;;;;;;;20.73;16.10;;;;;;;21.11;100.00;101140.53;5009428;28;20033;-64
2023/08/12 05:56:56;;;;;;;14.93;13.20;;;;;;;21.08;100.00;101137.16;5012694;28;20041;-64
2023/08/12 05:59:21;;;;;;;18.25;14.32;;;;;;;21.03;100.00;101145.28;5014636;28;20654;-64
2023/08/12 06:01:46;;;;;;;23.85;14.63;;;;;;;20.99;100.00;101143.72;5013637;28;20413;-64
2023/08/12 06:04:12;;;;;;;15.40;12.27;;;;;;;20.96;100.00;101158.75;5020232;28;20033;-64
2023/08/12 06:06:37;;;;;;;20.65;14.88;;;;;;;20.93;100.00;101180.78;5018323;28;20040;-64
2023/08/12 06:09:03;;;;;;;23.20;16.40;;;;;;;20.89;100.00;101173.97;5017548;28;20048;-64
2023/08/12 06:11:28;;;;;;;10.75;9.13;;;;;;;20.72;100.00;101167.75;5019525;28;20039;-63
2023/08/12 06:13:54;;;;;;;9.55;5.88;;;;;;;20.48;100.00;101151.25;5012044;28;20817;-64
2023/08/12 06:16:19;;;;;;;9.43;5.35;;;;;;;20.40;100.00;101113.94;5014209;28;20045;-65
2023/08/12 06:18:44;;;;;;;9.93;5.90;;;;;;;20.33;100.00;101121.25;5012340;28;20084;-65
2023/08/12 06:21:10;;;;;;;9.60;6.10;;;;;;;20.29;100.00;101118.81;5019177;28;20049;-66
2023/08/12 06:23:35;;;;;;;11.05;5.88;;;;;;;20.24;100.00;101124.25;5021184;28;20029;-65
2023/08/12 06:26:00;;;;;;;8.27;5.82;;;;;;;20.23;100.00;101142.69;5018089;28;20575;-65
2023/08/12 06:28:26;;;;;;;8.30;5.70;;;;;;;20.20;100.00;101133.19;5018341;28;20458;-64
2023/08/12 06:30:51;;;;;;;8.45;5.45;;;;;;;20.13;100.00;101129.09;5014284;28;20041;-65
2023/08/12 06:33:17;;;;;;;8.15;5.43;;;;;;;20.10;100.00;101114.31;5006949;28;20088;-64
2023/08/12 06:35:42;;;;;;;7.25;5.15;;;;;;;20.12;100.00;101106.41;5007983;28;20518;-63
2023/08/12 06:38:09;;;;;;;8.25;5.63;;;;;;;20.11;100.00;101110.78;5010529;28;20037;-64
2023/08/12 06:40:35;;;;;;;10.02;5.53;;;;;;;20.15;100.00;101108.91;5018659;28;20037;-64
2023/08/12 06:43:01;;;;;;;7.20;4.88;;;;;;;20.16;100.00;101097.47;5012518;28;20033;-65
2023/08/12 06:45:26;;;;;;;8.55;5.43;;;;;;;20.21;100.00;101089.41;5013847;28;20255;-65
2023/08/12 06:47:51;;;;;;;7.80;5.28;;;;;;;20.25;100.00;101080.47;5013114;28;20029;-65
2023/08/12 06:50:17;;;;;;;8.00;5.20;;;;;;;20.30;100.00;101081.13;5011405;28;20538;-65
2023/08/12 06:52:42;;;;;;;9.07;6.65;;;;;;;20.39;100.00;101081.59;5014362;28;20041;-65
2023/08/12 06:55:08;;;;;;;11.73;6.43;;;;;;;20.47;100.00;101078.63;5010424;28;20042;-65
2023/08/12 06:57:33;;;;;;;8.20;5.85;;;;;;;20.57;100.00;101082.56;5008851;28;20176;-65
2023/08/12 06:59:58;;;;;;;9.65;6.55;;;;;;;20.66;100.00;101088.22;4992962;28;20409;-65
2023/08/12 07:02:24;;;;;;;9.52;5.93;;;;;;;20.77;100.00;101079.06;5018513;28;20041;-65
2023/08/12 07:04:49;;;;;;;7.70;5.90;;;;;;;20.90;100.00;101082.84;5014325;28;20041;-65
2023/08/12 07:07:14;;;;;;;8.35;5.45;;;;;;;20.92;100.00;101073.97;5013100;28;20049;-64
2023/08/12 07:09:40;;;;;;;7.30;5.35;;;;;;;21.00;100.00;101076.22;5011670;28;20092;-65
2023/08/12 07:12:05;;;;;;;9.85;5.78;;;;;;;21.14;100.00;101068.53;5008575;28;20136;-65
2023/08/12 07:14:31;;;;;;;9.77;4.90;;;;;;;21.19;100.00;101067.41;5014951;28;20041;-65
2023/08/12 07:16:56;;;;;;;5.82;4.80;;;;;;;21.30;100.00;101071.31;5006636;28;20050;-64
2023/08/12 07:19:22;;;;;;;8.18;4.93;;;;;;;21.33;100.00;101066.75;5014306;28;20103;-64
2023/08/12 07:21:47;;;;;;;8.38;3.85;;;;;;;21.40;100.00;101064.69;5003806;28;20530;-65
2023/08/12 07:24:13;;;;;;;8.75;4.30;;;;;;;21.52;100.00;101067.56;4994478;28;20768;-64
2023/08/12 07:26:38;;;;;;;4.90;3.40;;;;;;;21.61;100.00;101082.09;5017864;28;20140;-65
2023/08/12 07:29:03;;;;;;;5.18;3.05;;;;;;;21.49;100.00;101080.84;5016115;28;20045;-65
2023/08/12 07:31:29;;;;;;;5.63;2.65;;;;;;;21.47;100.00;101074.84;5012929;28;20049;-65
2023/08/12 07:33:54;;;;;;;3.88;2.72;;;;;;;21.46;100.00;101078.38;5017636;28;20048;-65
2023/08/12 07:36:20;;;;;;;6.05;3.22;;;;;;;21.57;100.00;101077.91;5010128;28;20042;-64
2023/08/12 07:38:45;;;;;;;5.22;2.95;;;;;;;21.59;100.00;101083.94;5017540;28;20037;-64
2023/08/12 07:41:10;;;;;;;4.65;2.72;;;;;;;21.50;100.00;101079.94;5009951;28;21645;-65
2023/08/12 07:43:36;;;;;;;6.75;2.88;;;;;;;21.53;100.00;101077.16;5008324;28;20633;-65
2023/08/12 07:46:01;;;;;;;6.63;3.10;;;;;;;21.63;100.00;101086.34;5014853;28;20049;-65
2023/08/12 07:48:26;;;;;;;4.32;2.80;;;;;;;21.68;100.00;101080.84;4996345;28;20128;-65
2023/08/12 07:50:57;;;;;;;5.30;2.80;;;;;;;21.79;100.00;101084.66;5012426;28;20087;-66
2023/08/12 07:53:22;;;;;;;8.07;2.58;;;;;;;21.87;100.00;101080.81;5004931;28;20036;-65
2023/08/12 07:55:47;;;;;;;5.65;2.78;;;;;;;22.17;100.00;101085.38;5008870;28;20045;-65
2023/08/12 07:58:13;;;;;;;3.75;2.58;;;;;;;22.41;100.00;101080.66;5015282;28;20091;-65
2023/08/12 08:00:39;;;;;;;6.32;2.53;;;;;;;22.36;99.73;101077.38;5007212;28;20131;-65
2023/08/12 08:03:04;;;;;;;4.93;2.47;;;;;;;22.52;99.34;101075.69;5013790;28;20033;-65
2023/08/12 08:05:29;;;;;;;4.65;2.40;;;;;;;22.51;98.49;101073.13;5014505;28;20040;-65
2023/08/12 08:07:55;;;;;;;5.15;2.40;;;;;;;22.52;97.65;101069.56;5012259;28;20042;-65
2023/08/12 08:10:20;;;;;;;4.72;2.80;;;;;;;22.58;98.11;101077.13;5014621;28;20740;-65
2023/08/12 08:12:46;;;;;;;6.18;2.35;;;;;;;22.70;96.89;101064.16;5024776;28;20148;-65
2023/08/12 08:15:11;;;;;;;4.22;2.47;;;;;;;22.83;97.18;101073.09;5012729;28;20045;-66
2023/08/12 08:17:37;;;;;;;9.85;3.05;;;;;;;23.01;96.76;101067.75;5014781;28;20042;-65
2023/08/12 08:20:03;;;;;;;2.78;2.15;;;;;;;23.07;95.04;101072.69;5011809;28;20057;-65
2023/08/12 08:22:28;;;;;;;4.32;2.63;;;;;;;23.09;94.40;101058.50;5010788;28;20049;-65
2023/08/12 08:24:53;;;;;;;4.35;2.60;;;;;;;23.13;93.67;101059.16;5014901;28;20041;-64
2023/08/12 08:27:19;;;;;;;4.88;2.20;;;;;;;23.03;94.52;101053.56;5014272;28;20261;-65
2023/08/12 08:29:44;;;;;;;4.07;2.13;;;;;;;22.97;93.87;101061.81;5010504;28;20017;-65
2023/08/12 08:32:10;;;;;;;4.28;2.10;;;;;;;23.02;94.01;101051.88;5012179;28;20046;-65
2023/08/12 08:34:35;;;;;;;6.32;2.85;;;;;;;23.07;94.71;101051.59;5016746;28;20047;-65
2023/08/12 08:37:00;;;;;;;2.05;1.70;;;;;;;22.99;93.11;101051.19;5009422;28;20050;-65
2023/08/12 08:39:26;;;;;;;4.35;2.00;;;;;;;23.10;93.53;101059.34;5013433;28;20795;-65
2023/08/12 08:41:53;;;;;;;3.92;2.17;;;;;;;23.03;92.28;101066.75;5014816;28;20659;-65
2023/08/12 08:44:22;;;;;;;2.92;2.33;;;;;;;23.12;94.36;101063.63;5008070;28;20096;-64
2023/08/12 08:46:49;;;;;;;3.63;1.90;;;;;;;23.06;92.15;101071.00;4994425;28;20037;-64
2023/08/12 08:49:16;;;;;;;4.82;2.10;;;;;;;23.21;93.37;101075.47;5002631;28;20029;-65
2023/08/12 08:51:42;;;;;;;4.13;2.17;;;;;;;23.31;93.82;101079.28;5020450;28;20732;-66
2023/08/12 08:54:09;;;;;;;3.28;2.08;;;;;;;23.30;92.45;101086.34;5020539;28;20049;-65
2023/08/12 08:56:34;;;;;;;3.95;2.47;;;;;;;23.39;93.00;101080.53;5020264;28;20522;-65
2023/08/12 08:59:00;;;;;;;5.97;2.30;;;;;;;23.50;92.50;101081.75;5003777;28;20056;-65
2023/08/12 09:01:27;;;;;;;5.47;2.30;;;;;;;23.48;88.08;101081.84;5014985;28;20044;-65
2023/08/12 09:03:53;;;;;;;5.30;1.90;;;;;;;23.71;88.96;101089.28;5020205;28;20048;-65
2023/08/12 09:06:20;;;;;;;4.50;2.17;;;;;;;23.79;88.72;101100.25;5022440;28;20139;-65
2023/08/12 09:08:48;;;;;;;5.75;2.30;;;;;;;24.05;89.26;101096.13;5024322;28;20033;-64
2023/08/12 09:11:15;;;;;;;3.85;2.20;;;;;;;24.01;87.25;101091.97;5018998;28;20033;-65
2023/08/12 09:13:41;;;;;;;4.80;2.33;;;;;;;23.71;84.98;101084.03;5020299;28;20110;-64
2023/08/12 09:16:06;;;;;;;6.72;2.42;;;;;;;23.71;88.02;101086.66;5016906;28;20053;-64
2023/08/12 09:18:32;;;;;;;3.72;2.47;;;;;;;23.55;88.33;101091.09;5020059;28;20048;-64
2023/08/12 09:20:58;;;;;;;3.38;2.20;;;;;;;23.59;89.85;101083.88;5017921;28;20036;-65
2023/08/12 09:23:23;;;;;;;3.38;2.58;;;;;;;23.53;90.00;101098.25;5020498;28;20044;-64
2023/08/12 09:25:48;;;;;;;3.28;2.28;;;;;;;23.53;89.90;101103.53;5015506;28;20030;-64
2023/08/12 09:28:14;;;;;;;2.97;2.15;;;;;;;23.61;91.65;101097.81;5013622;28;20072;-67
2023/08/12 09:30:40;;;;;;;6.10;2.17;;;;;;;23.73;88.96;101092.69;5013530;28;20419;-67
2023/08/12 09:33:08;;;;;;;5.07;2.08;;;;;;;23.89;86.65;101095.31;5007767;28;20069;-67
2023/08/12 09:35:34;;;;;;;4.35;2.00;;;;;;;23.98;87.34;101090.38;5020084;28;20148;-67
2023/08/12 09:38:02;;;;;;;3.72;2.25;;;;;;;24.10;87.70;101090.59;5018488;28;20046;-67
2023/08/12 09:40:27;;;;;;;5.03;2.22;;;;;;;24.03;85.51;101081.31;5010334;28;20068;-66
2023/08/12 09:42:53;;;;;;;3.70;1.88;;;;;;;24.13;86.87;101082.47;5018928;28;20124;-66
2023/08/12 09:45:20;;;;;;;4.43;2.10;;;;;;;24.15;87.21;101081.44;5008786;28;20499;-66
2023/08/12 09:47:46;;;;;;;5.43;1.73;;;;;;;24.16;85.05;101066.44;5013871;28;20056;-66
2023/08/12 09:50:13;;;;;;;5.50;2.20;;;;;;;24.21;85.59;101064.38;5008027;28;20041;-66
2023/08/12 09:52:39;;;;;;;4.38;1.88;;;;;;;24.44;84.60;101066.47;5018253;28;20698;-66
2023/08/12 09:55:07;;;;;;;5.05;2.30;;;;;;;24.63;84.71;101068.84;5019636;28;20849;-67
2023/08/12 09:57:36;;;;;;;4.00;2.05;;;;;;;24.85;83.79;101074.50;5018427;28;20619;-66
2023/08/12 10:00:03;;;;;;;3.67;2.35;;;;;;;25.12;79.85;101053.41;5016818;28;20163;-66
2023/08/12 10:02:29;;;;;;;4.25;1.83;;;;;;;25.21;81.04;101073.97;5011649;28;20091;-66
2023/08/12 10:04:56;;;;;;;4.00;1.42;;;;;;;25.15;81.81;101080.53;5018868;28;20041;-66
2023/08/12 10:07:23;;;;;;;5.25;2.28;;;;;;;25.05;82.75;101084.72;5009142;28;20129;-66
2023/08/12 10:09:49;;;;;;;3.33;1.98;;;;;;;24.79;83.62;101096.09;5011225;28;20045;-66
2023/08/12 10:12:15;;;;;;;4.88;1.73;;;;;;;24.55;82.57;101079.91;5014546;28;20033;-66
2023/08/12 10:14:41;;;;;;;3.50;1.77;;;;;;;24.43;82.68;101081.47;5013021;28;20142;-66
2023/08/12 10:17:09;;;;;;;3.13;1.98;;;;;;;24.54;82.69;101075.53;5009931;28;20122;-66
2023/08/12 10:19:35;;;;;;;6.47;2.17;;;;;;;24.79;82.11;101072.28;5017877;28;20048;-66
2023/08/12 10:22:03;;;;;;;4.25;1.90;;;;;;;24.93;80.51;101066.97;5014352;28;20048;-66
2023/08/12 10:24:29;;;;;;;3.47;2.00;;;;;;;25.14;80.83;101078.00;5014063;28;20052;-66
2023/08/12 10:26:54;;;;;;;2.95;1.75;;;;;;;25.18;78.55;101048.56;4996833;28;20045;-66
2023/08/12 10:29:22;;;;;;;4.50;1.90;;;;;;;25.36;80.95;101068.56;5018523;28;20026;-67
2023/08/12 10:31:48;;;;;;;6.55;2.20;;;;;;;25.46;79.50;101052.97;5008917;28;20034;-66
2023/08/12 10:34:24;;;;;;;3.15;1.92;;;;;;;25.56;80.49;101062.03;5017610;28;20040;-66
2023/08/12 10:36:57;;;;;;;3.30;1.92;;;;;;;25.64;79.50;101067.66;5002854;28;20050;-66
2023/08/12 10:39:26;;;;;;;4.32;1.83;;;;;;;25.60;78.56;101059.06;5014562;28;20034;-66
2023/08/12 10:41:54;;;;;;;2.88;2.10;;;;;;;25.85;78.90;101053.00;5014775;28;20084;-66
2023/08/12 10:44:22;;;;;;;4.97;1.63;;;;;;;25.96;76.39;101029.25;5027337;28;20740;-66
2023/08/12 10:46:51;;;;;;;3.65;2.10;;;;;;;26.18;77.08;101039.28;5006937;28;20035;-66
2023/08/12 10:49:19;;;;;;;3.22;1.60;;;;;;;26.17;75.07;101029.63;5007715;28;20053;-67
2023/08/12 10:51:53;;;;;;;3.45;1.50;;;;;;;26.16;75.11;101030.56;5014034;28;20092;-66
2023/08/12 10:54:29;;;;;;;2.17;1.47;;;;;;;26.14;76.04;101043.94;5012795;28;20044;-66
2023/08/12 10:57:10;;;;;;;4.15;2.05;;;;;;;26.02;76.48;101055.34;4994476;28;21148;-66
2023/08/12 10:59:45;;;;;;;3.38;1.45;;;;;;;25.74;77.04;101046.72;5014173;28;20045;-66
2023/08/12 11:02:17;;;;;;;2.30;1.63;;;;;;;25.60;77.64;101040.53;5016073;28;20410;-66
2023/08/12 11:04:43;;;;;;;2.75;1.33;;;;;;;25.32;76.80;101029.19;5017463;28;20053;-66